<?xml version="1.0" encoding="UTF-8" standalone="no" ?>
<gpx xmlns="http://www.topografix.com/GPX/1/1" xmlns:xsi="http://www.w3.org/2001/XMLSchema-instance" xsi:schemaLocation="http://www.topografix.com/GPX/1/1 http://www.topografix.com/GPX/1/1/gpx.xsd" version="1.1" creator="VisuGPX - https://www.visugpx.com">
  <metadata>
    <name>De Meillerie à Salvigny</name>
    <desc><![CDATA[Randonnée en Haute-Savoie]]></desc>
  </metadata>
  <trk>
    <name><![CDATA[ACTIVE LOG: 28 JUL 2015 08:07]]></name>
    <trkseg>
      <trkpt lat="46.2673" lon="6.79172">
        <ele>1872.3</ele>
        <time>2015-07-28T06:07:10Z</time>
      </trkpt>
      <trkpt lat="46.26707" lon="6.79138">
        <ele>1876.63</ele>
        <time>2015-07-28T06:08:15Z</time>
      </trkpt>
      <trkpt lat="46.26656" lon="6.79131">
        <ele>1871.34</ele>
        <time>2015-07-28T06:09:20Z</time>
      </trkpt>
      <trkpt lat="46.26601" lon="6.79131">
        <ele>1872.79</ele>
        <time>2015-07-28T06:10:25Z</time>
      </trkpt>
      <trkpt lat="46.26576" lon="6.79137">
        <ele>1871.34</ele>
        <time>2015-07-28T06:11:30Z</time>
      </trkpt>
      <trkpt lat="46.26524" lon="6.7917">
        <ele>1873.75</ele>
        <time>2015-07-28T06:12:35Z</time>
      </trkpt>
      <trkpt lat="46.26473" lon="6.79228">
        <ele>1876.15</ele>
        <time>2015-07-28T06:13:40Z</time>
      </trkpt>
      <trkpt lat="46.26436" lon="6.7929">
        <ele>1878.55</ele>
        <time>2015-07-28T06:14:45Z</time>
      </trkpt>
      <trkpt lat="46.26397" lon="6.79347">
        <ele>1885.76</ele>
        <time>2015-07-28T06:15:50Z</time>
      </trkpt>
      <trkpt lat="46.26381" lon="6.7937">
        <ele>1892.01</ele>
        <time>2015-07-28T06:16:55Z</time>
      </trkpt>
      <trkpt lat="46.26371" lon="6.79395">
        <ele>1896.34</ele>
        <time>2015-07-28T06:18:00Z</time>
      </trkpt>
      <trkpt lat="46.26352" lon="6.79418">
        <ele>1905.95</ele>
        <time>2015-07-28T06:19:05Z</time>
      </trkpt>
      <trkpt lat="46.26339" lon="6.79397">
        <ele>1917.97</ele>
        <time>2015-07-28T06:20:10Z</time>
      </trkpt>
      <trkpt lat="46.26338" lon="6.7937">
        <ele>1929.02</ele>
        <time>2015-07-28T06:21:15Z</time>
      </trkpt>
      <trkpt lat="46.26323" lon="6.7937">
        <ele>1937.67</ele>
        <time>2015-07-28T06:22:20Z</time>
      </trkpt>
      <trkpt lat="46.26312" lon="6.79363">
        <ele>1947.29</ele>
        <time>2015-07-28T06:23:25Z</time>
      </trkpt>
      <trkpt lat="46.26315" lon="6.79332">
        <ele>1959.3</ele>
        <time>2015-07-28T06:24:30Z</time>
      </trkpt>
      <trkpt lat="46.26306" lon="6.7933">
        <ele>1970.84</ele>
        <time>2015-07-28T06:25:35Z</time>
      </trkpt>
      <trkpt lat="46.26302" lon="6.79316">
        <ele>1977.09</ele>
        <time>2015-07-28T06:26:40Z</time>
      </trkpt>
      <trkpt lat="46.26291" lon="6.79318">
        <ele>1974.69</ele>
        <time>2015-07-28T06:27:45Z</time>
      </trkpt>
      <trkpt lat="46.26284" lon="6.79318">
        <ele>1971.8</ele>
        <time>2015-07-28T06:28:50Z</time>
      </trkpt>
      <trkpt lat="46.26259" lon="6.79342">
        <ele>1970.36</ele>
        <time>2015-07-28T06:29:55Z</time>
      </trkpt>
      <trkpt lat="46.26246" lon="6.79388">
        <ele>1966.51</ele>
        <time>2015-07-28T06:31:00Z</time>
      </trkpt>
      <trkpt lat="46.26232" lon="6.79488">
        <ele>1958.34</ele>
        <time>2015-07-28T06:32:05Z</time>
      </trkpt>
      <trkpt lat="46.26185" lon="6.79572">
        <ele>1948.25</ele>
        <time>2015-07-28T06:33:10Z</time>
      </trkpt>
      <trkpt lat="46.26139" lon="6.7955">
        <ele>1938.16</ele>
        <time>2015-07-28T06:34:15Z</time>
      </trkpt>
      <trkpt lat="46.26088" lon="6.79576">
        <ele>1925.18</ele>
        <time>2015-07-28T06:35:20Z</time>
      </trkpt>
      <trkpt lat="46.26037" lon="6.79597">
        <ele>1909.32</ele>
        <time>2015-07-28T06:36:25Z</time>
      </trkpt>
      <trkpt lat="46.26031" lon="6.79557">
        <ele>1901.14</ele>
        <time>2015-07-28T06:37:30Z</time>
      </trkpt>
      <trkpt lat="46.26058" lon="6.79494">
        <ele>1897.3</ele>
        <time>2015-07-28T06:38:35Z</time>
      </trkpt>
      <trkpt lat="46.26085" lon="6.79405">
        <ele>1891.53</ele>
        <time>2015-07-28T06:39:40Z</time>
      </trkpt>
      <trkpt lat="46.26101" lon="6.79309">
        <ele>1888.17</ele>
        <time>2015-07-28T06:40:45Z</time>
      </trkpt>
      <trkpt lat="46.2607" lon="6.79281">
        <ele>1880.48</ele>
        <time>2015-07-28T06:41:50Z</time>
      </trkpt>
      <trkpt lat="46.26068" lon="6.79327">
        <ele>1867.02</ele>
        <time>2015-07-28T06:42:55Z</time>
      </trkpt>
      <trkpt lat="46.26049" lon="6.79371">
        <ele>1859.81</ele>
        <time>2015-07-28T06:44:00Z</time>
      </trkpt>
      <trkpt lat="46.25996" lon="6.79433">
        <ele>1858.85</ele>
        <time>2015-07-28T06:45:05Z</time>
      </trkpt>
      <trkpt lat="46.25931" lon="6.79449">
        <ele>1850.19</ele>
        <time>2015-07-28T06:46:10Z</time>
      </trkpt>
      <trkpt lat="46.2592" lon="6.79501">
        <ele>1839.14</ele>
        <time>2015-07-28T06:47:15Z</time>
      </trkpt>
      <trkpt lat="46.25901" lon="6.79522">
        <ele>1828.56</ele>
        <time>2015-07-28T06:48:20Z</time>
      </trkpt>
      <trkpt lat="46.2588" lon="6.795">
        <ele>1814.15</ele>
        <time>2015-07-28T06:49:25Z</time>
      </trkpt>
      <trkpt lat="46.25857" lon="6.7945">
        <ele>1801.65</ele>
        <time>2015-07-28T06:50:30Z</time>
      </trkpt>
      <trkpt lat="46.25818" lon="6.79454">
        <ele>1786.27</ele>
        <time>2015-07-28T06:51:35Z</time>
      </trkpt>
      <trkpt lat="46.258" lon="6.79417">
        <ele>1777.61</ele>
        <time>2015-07-28T06:52:40Z</time>
      </trkpt>
      <trkpt lat="46.25792" lon="6.79475">
        <ele>1768.96</ele>
        <time>2015-07-28T06:53:45Z</time>
      </trkpt>
      <trkpt lat="46.25768" lon="6.79492">
        <ele>1759.83</ele>
        <time>2015-07-28T06:54:50Z</time>
      </trkpt>
      <trkpt lat="46.25735" lon="6.79425">
        <ele>1744.45</ele>
        <time>2015-07-28T06:55:55Z</time>
      </trkpt>
      <trkpt lat="46.25701" lon="6.79417">
        <ele>1728.59</ele>
        <time>2015-07-28T06:57:00Z</time>
      </trkpt>
      <trkpt lat="46.25713" lon="6.79358">
        <ele>1718.49</ele>
        <time>2015-07-28T06:58:05Z</time>
      </trkpt>
      <trkpt lat="46.25736" lon="6.79276">
        <ele>1712.25</ele>
        <time>2015-07-28T06:59:10Z</time>
      </trkpt>
      <trkpt lat="46.25746" lon="6.79196">
        <ele>1710.8</ele>
        <time>2015-07-28T07:00:15Z</time>
      </trkpt>
      <trkpt lat="46.25711" lon="6.79185">
        <ele>1701.19</ele>
        <time>2015-07-28T07:01:20Z</time>
      </trkpt>
      <trkpt lat="46.25675" lon="6.79217">
        <ele>1686.77</ele>
        <time>2015-07-28T07:02:25Z</time>
      </trkpt>
      <trkpt lat="46.25625" lon="6.79229">
        <ele>1673.31</ele>
        <time>2015-07-28T07:03:30Z</time>
      </trkpt>
      <trkpt lat="46.25606" lon="6.79215">
        <ele>1670.43</ele>
        <time>2015-07-28T07:04:35Z</time>
      </trkpt>
      <trkpt lat="46.25571" lon="6.79168">
        <ele>1673.31</ele>
        <time>2015-07-28T07:05:40Z</time>
      </trkpt>
      <trkpt lat="46.25522" lon="6.79112">
        <ele>1679.56</ele>
        <time>2015-07-28T07:06:45Z</time>
      </trkpt>
      <trkpt lat="46.25483" lon="6.79064">
        <ele>1689.65</ele>
        <time>2015-07-28T07:07:50Z</time>
      </trkpt>
      <trkpt lat="46.25465" lon="6.791">
        <ele>1695.9</ele>
        <time>2015-07-28T07:08:55Z</time>
      </trkpt>
      <trkpt lat="46.25417" lon="6.79144">
        <ele>1703.11</ele>
        <time>2015-07-28T07:10:00Z</time>
      </trkpt>
      <trkpt lat="46.25415" lon="6.79143">
        <ele>1702.15</ele>
        <time>2015-07-28T07:11:05Z</time>
      </trkpt>
      <trkpt lat="46.25385" lon="6.79159">
        <ele>1701.19</ele>
        <time>2015-07-28T07:12:10Z</time>
      </trkpt>
      <trkpt lat="46.25325" lon="6.79169">
        <ele>1706</ele>
        <time>2015-07-28T07:13:15Z</time>
      </trkpt>
      <trkpt lat="46.25271" lon="6.79155">
        <ele>1714.65</ele>
        <time>2015-07-28T07:14:20Z</time>
      </trkpt>
      <trkpt lat="46.25224" lon="6.7914">
        <ele>1723.3</ele>
        <time>2015-07-28T07:15:25Z</time>
      </trkpt>
      <trkpt lat="46.25173" lon="6.79129">
        <ele>1730.99</ele>
        <time>2015-07-28T07:16:30Z</time>
      </trkpt>
      <trkpt lat="46.25125" lon="6.79095">
        <ele>1738.68</ele>
        <time>2015-07-28T07:17:35Z</time>
      </trkpt>
      <trkpt lat="46.25074" lon="6.79082">
        <ele>1746.85</ele>
        <time>2015-07-28T07:18:40Z</time>
      </trkpt>
      <trkpt lat="46.25026" lon="6.79068">
        <ele>1756.47</ele>
        <time>2015-07-28T07:19:45Z</time>
      </trkpt>
      <trkpt lat="46.24973" lon="6.79048">
        <ele>1763.2</ele>
        <time>2015-07-28T07:20:50Z</time>
      </trkpt>
      <trkpt lat="46.24919" lon="6.79038">
        <ele>1771.37</ele>
        <time>2015-07-28T07:21:55Z</time>
      </trkpt>
      <trkpt lat="46.24883" lon="6.79041">
        <ele>1775.69</ele>
        <time>2015-07-28T07:23:00Z</time>
      </trkpt>
      <trkpt lat="46.24829" lon="6.79028">
        <ele>1782.9</ele>
        <time>2015-07-28T07:24:05Z</time>
      </trkpt>
      <trkpt lat="46.24807" lon="6.78976">
        <ele>1791.55</ele>
        <time>2015-07-28T07:25:10Z</time>
      </trkpt>
      <trkpt lat="46.24835" lon="6.78979">
        <ele>1800.69</ele>
        <time>2015-07-28T07:26:15Z</time>
      </trkpt>
      <trkpt lat="46.24798" lon="6.78936">
        <ele>1809.82</ele>
        <time>2015-07-28T07:27:20Z</time>
      </trkpt>
      <trkpt lat="46.24801" lon="6.78912">
        <ele>1816.55</ele>
        <time>2015-07-28T07:28:25Z</time>
      </trkpt>
      <trkpt lat="46.24844" lon="6.78923">
        <ele>1825.2</ele>
        <time>2015-07-28T07:29:30Z</time>
      </trkpt>
      <trkpt lat="46.24804" lon="6.78885">
        <ele>1833.37</ele>
        <time>2015-07-28T07:30:35Z</time>
      </trkpt>
      <trkpt lat="46.2477" lon="6.78836">
        <ele>1842.98</ele>
        <time>2015-07-28T07:31:40Z</time>
      </trkpt>
      <trkpt lat="46.24755" lon="6.78806">
        <ele>1844.43</ele>
        <time>2015-07-28T07:32:45Z</time>
      </trkpt>
      <trkpt lat="46.2474" lon="6.78735">
        <ele>1841.54</ele>
        <time>2015-07-28T07:33:50Z</time>
      </trkpt>
      <trkpt lat="46.24749" lon="6.78632">
        <ele>1832.89</ele>
        <time>2015-07-28T07:34:55Z</time>
      </trkpt>
      <trkpt lat="46.24777" lon="6.78534">
        <ele>1825.2</ele>
        <time>2015-07-28T07:36:00Z</time>
      </trkpt>
      <trkpt lat="46.24794" lon="6.7845">
        <ele>1817.03</ele>
        <time>2015-07-28T07:37:05Z</time>
      </trkpt>
      <trkpt lat="46.24803" lon="6.78357">
        <ele>1807.9</ele>
        <time>2015-07-28T07:38:10Z</time>
      </trkpt>
      <trkpt lat="46.2482" lon="6.7825">
        <ele>1798.28</ele>
        <time>2015-07-28T07:39:15Z</time>
      </trkpt>
      <trkpt lat="46.24844" lon="6.78145">
        <ele>1790.59</ele>
        <time>2015-07-28T07:40:20Z</time>
      </trkpt>
      <trkpt lat="46.24848" lon="6.78055">
        <ele>1781.46</ele>
        <time>2015-07-28T07:41:25Z</time>
      </trkpt>
      <trkpt lat="46.24852" lon="6.77957">
        <ele>1769.44</ele>
        <time>2015-07-28T07:42:30Z</time>
      </trkpt>
      <trkpt lat="46.24836" lon="6.77882">
        <ele>1757.43</ele>
        <time>2015-07-28T07:43:35Z</time>
      </trkpt>
      <trkpt lat="46.24806" lon="6.77837">
        <ele>1745.89</ele>
        <time>2015-07-28T07:44:40Z</time>
      </trkpt>
      <trkpt lat="46.24769" lon="6.77765">
        <ele>1738.2</ele>
        <time>2015-07-28T07:45:45Z</time>
      </trkpt>
      <trkpt lat="46.2474" lon="6.77704">
        <ele>1741.08</ele>
        <time>2015-07-28T07:46:50Z</time>
      </trkpt>
      <trkpt lat="46.2469" lon="6.77661">
        <ele>1740.6</ele>
        <time>2015-07-28T07:47:55Z</time>
      </trkpt>
      <trkpt lat="46.24641" lon="6.7769">
        <ele>1742.05</ele>
        <time>2015-07-28T07:49:00Z</time>
      </trkpt>
      <trkpt lat="46.24574" lon="6.77734">
        <ele>1733.88</ele>
        <time>2015-07-28T07:50:05Z</time>
      </trkpt>
      <trkpt lat="46.2454" lon="6.77741">
        <ele>1731.47</ele>
        <time>2015-07-28T07:50:59Z</time>
      </trkpt>
    </trkseg>
  </trk>
</gpx>